메인 페이지
METAR-TAF:

METAR-TAF

공항 :

트리부반 국제공항

카트만두, 네팔

위도: 27-42N, 경도: 085-22E, 고도: 1337m

현재 날씨관측

예보는 10분 전, 08:50시(UTC)에 발표되었습니다.
북동3kt
온도 24°C
습도 54%
기압 1012 hPa
시정: 7000m
고도 1500ft 상공 구름 조금
고도 3000ft 상공 구름 보통

METAR: VNKT 100850Z 04003KT 7000 FEW015 SCT030 24/14 Q1012 NOSIG

시각: 14:45 (09:00 UTC)

예보

예보는 4 시간 0분 전, 05:00시(UTC)에 발표되었습니다.
예보 대상 시간: 10일 06시부터 11일 06시까지 (UTC)
남서4kt
시정: 6000m
고도 1500ft 상공 구름 조금
고도 3000ft 상공 구름 보통
고도 10000ft 상공 구름 많음
확률 40%
10일 08시부터 10일 12시까지 (UTC)
여러 방향의 바람 10kt
시정: 4000m
고도 2500ft 상공 구름 조금, 적란운.
뇌우, 약한비
전환 중
10일 14시부터 10일 15시까지 (UTC)
3kt
시정: 7000m
고도 1500ft 상공 구름 조금
고도 3000ft 상공 구름 보통
고도 10000ft 상공 구름 많음
전환 중
11일 01시부터 11일 02시까지 (UTC)
여러 방향의 바람 2kt
시정: 5000m
고도 1500ft 상공 구름 조금
고도 3000ft 상공 구름 보통
고도 10000ft 상공 구름 많음
박무
확률 30%
11일 00시부터 11일 04시까지 (UTC)
여러 방향의 바람 2kt
시정: 4000m
고도 2500ft 상공 구름 조금, 적란운.
약한비

TAF: VNKT 100500Z 1006/1106 22004KT 6000 FEW015 SCT030 BKN100 PROB40 1008/1012 VRB10KT 4000 -TSRA FEW025CB BECMG 1014/1015 10003KT 7000 FEW015 SCT030 BKN100 BECMG 1101/1102 VRB02KT 5000 BR FEW015 SCT030 BKN100 PROB30 1100/1104 VRB02KT 4000 -RA FEW025CB

4,000개 이상의 공항 관측 자료 및 예보 (METAR 및 TAF 보고).

지도상에서 검색 가능한 기상관측소가 노란 점과 빨간 점으로 표시되어 있습니다.

기상관측소 명을 보려면 표시 위로 마우스를 이동하세요.

날씨 관측과 예보를 보려면 클릭하세요.

지도 변경 : 확대하려면 엑스 표시가 있는 녹색 버튼, 축소하려면 빼기 표시가 있는 녹색 버튼, 다음 페이지의 지도를 보려면 녹색 화살표를 클릭하세요.


METAR-TAF: